sensor_id;sensor_type;location;lat;lon;timestamp;P1;durP1;ratioP1;P2;durP2;ratioP2
85892;SDS011;76433;42.122;23.040;2024-02-23T00:01:45;17.95;;;10.10;;
85892;SDS011;76433;42.122;23.040;2024-02-23T00:04:10;15.70;;;9.45;;
85892;SDS011;76433;42.122;23.040;2024-02-23T00:06:36;13.52;;;8.52;;
85892;SDS011;76433;42.122;23.040;2024-02-23T00:09:01;16.50;;;9.27;;
85892;SDS011;76433;42.122;23.040;2024-02-23T00:11:27;16.30;;;10.02;;
85892;SDS011;76433;42.122;23.040;2024-02-23T00:13:53;15.82;;;10.00;;
85892;SDS011;76433;42.122;23.040;2024-02-23T00:16:19;16.02;;;9.13;;
85892;SDS011;76433;42.122;23.040;2024-02-23T00:18:44;18.17;;;10.82;;
85892;SDS011;76433;42.122;23.040;2024-02-23T00:21:09;19.83;;;11.63;;
85892;SDS011;76433;42.122;23.040;2024-02-23T00:23:35;18.77;;;10.10;;
85892;SDS011;76433;42.122;23.040;2024-02-23T00:26:01;19.98;;;11.68;;
85892;SDS011;76433;42.122;23.040;2024-02-23T00:28:26;17.27;;;10.20;;
85892;SDS011;76433;42.122;23.040;2024-02-23T00:30:51;19.37;;;11.17;;
85892;SDS011;76433;42.122;23.040;2024-02-23T00:33:18;20.48;;;11.52;;
85892;SDS011;76433;42.122;23.040;2024-02-23T00:35:43;19.65;;;11.88;;
85892;SDS011;76433;42.122;23.040;2024-02-23T00:38:09;18.58;;;11.50;;
85892;SDS011;76433;42.122;23.040;2024-02-23T00:40:34;19.05;;;10.80;;
85892;SDS011;76433;42.122;23.040;2024-02-23T00:42:59;20.87;;;11.97;;
85892;SDS011;76433;42.122;23.040;2024-02-23T00:45:28;20.17;;;12.13;;
85892;SDS011;76433;42.122;23.040;2024-02-23T00:47:53;19.27;;;10.55;;
85892;SDS011;76433;42.122;23.040;2024-02-23T00:50:19;18.58;;;10.60;;
85892;SDS011;76433;42.122;23.040;2024-02-23T00:52:44;18.73;;;10.60;;
85892;SDS011;76433;42.122;23.040;2024-02-23T00:55:10;18.77;;;11.03;;
85892;SDS011;76433;42.122;23.040;2024-02-23T00:57:35;21.03;;;11.57;;
85892;SDS011;76433;42.122;23.040;2024-02-23T01:00:01;20.25;;;11.48;;
85892;SDS011;76433;42.122;23.040;2024-02-23T01:02:30;19.30;;;11.07;;
85892;SDS011;76433;42.122;23.040;2024-02-23T01:04:56;22.42;;;11.75;;
85892;SDS011;76433;42.122;23.040;2024-02-23T01:07:23;17.45;;;10.35;;
85892;SDS011;76433;42.122;23.040;2024-02-23T01:09:49;18.77;;;11.70;;
85892;SDS011;76433;42.122;23.040;2024-02-23T01:12:14;20.80;;;11.03;;
85892;SDS011;76433;42.122;23.040;2024-02-23T01:14:39;22.43;;;11.23;;
85892;SDS011;76433;42.122;23.040;2024-02-23T01:17:05;19.70;;;10.87;;
85892;SDS011;76433;42.122;23.040;2024-02-23T01:19:30;18.00;;;10.40;;
85892;SDS011;76433;42.122;23.040;2024-02-23T01:21:55;19.15;;;11.13;;
85892;SDS011;76433;42.122;23.040;2024-02-23T01:24:25;19.38;;;12.25;;
85892;SDS011;76433;42.122;23.040;2024-02-23T01:26:52;21.42;;;11.35;;
85892;SDS011;76433;42.122;23.040;2024-02-23T01:29:18;19.42;;;11.30;;
85892;SDS011;76433;42.122;23.040;2024-02-23T01:31:44;20.43;;;11.20;;
85892;SDS011;76433;42.122;23.040;2024-02-23T01:34:09;19.20;;;11.50;;
85892;SDS011;76433;42.122;23.040;2024-02-23T01:36:34;19.77;;;11.77;;
85892;SDS011;76433;42.122;23.040;2024-02-23T01:39:01;19.13;;;10.40;;
85892;SDS011;76433;42.122;23.040;2024-02-23T01:41:26;19.98;;;11.27;;
85892;SDS011;76433;42.122;23.040;2024-02-23T01:43:52;20.27;;;11.32;;
85892;SDS011;76433;42.122;23.040;2024-02-23T01:46:17;19.50;;;11.57;;
85892;SDS011;76433;42.122;23.040;2024-02-23T01:48:44;19.48;;;11.05;;
85892;SDS011;76433;42.122;23.040;2024-02-23T01:51:10;20.20;;;11.52;;
85892;SDS011;76433;42.122;23.040;2024-02-23T01:53:36;19.90;;;11.63;;
85892;SDS011;76433;42.122;23.040;2024-02-23T01:56:02;22.45;;;10.77;;
85892;SDS011;76433;42.122;23.040;2024-02-23T01:58:29;18.77;;;10.27;;
85892;SDS011;76433;42.122;23.040;2024-02-23T02:00:54;18.88;;;10.05;;
85892;SDS011;76433;42.122;23.040;2024-02-23T02:03:20;18.17;;;10.50;;
85892;SDS011;76433;42.122;23.040;2024-02-23T02:05:45;19.73;;;10.80;;
85892;SDS011;76433;42.122;23.040;2024-02-23T02:08:10;18.03;;;11.10;;
85892;SDS011;76433;42.122;23.040;2024-02-23T02:10:36;17.52;;;10.32;;
85892;SDS011;76433;42.122;23.040;2024-02-23T02:13:04;19.10;;;10.83;;
85892;SDS011;76433;42.122;23.040;2024-02-23T02:15:30;17.15;;;10.43;;
85892;SDS011;76433;42.122;23.040;2024-02-23T02:17:56;16.33;;;9.63;;
85892;SDS011;76433;42.122;23.040;2024-02-23T02:20:23;17.83;;;10.25;;
85892;SDS011;76433;42.122;23.040;2024-02-23T02:22:49;18.27;;;10.88;;
85892;SDS011;76433;42.122;23.040;2024-02-23T02:25:15;18.90;;;11.18;;
85892;SDS011;76433;42.122;23.040;2024-02-23T02:27:40;18.42;;;11.35;;
85892;SDS011;76433;42.122;23.040;2024-02-23T02:30:06;17.83;;;9.80;;
85892;SDS011;76433;42.122;23.040;2024-02-23T02:32:32;16.05;;;9.48;;
85892;SDS011;76433;42.122;23.040;2024-02-23T02:34:58;17.95;;;10.85;;
85892;SDS011;76433;42.122;23.040;2024-02-23T02:37:23;16.10;;;10.75;;
85892;SDS011;76433;42.122;23.040;2024-02-23T02:39:49;18.10;;;10.03;;
85892;SDS011;76433;42.122;23.040;2024-02-23T02:42:14;19.27;;;11.13;;
85892;SDS011;76433;42.122;23.040;2024-02-23T02:44:40;21.45;;;11.18;;
85892;SDS011;76433;42.122;23.040;2024-02-23T02:47:05;19.27;;;11.60;;
85892;SDS011;76433;42.122;23.040;2024-02-23T02:49:31;20.02;;;11.35;;
85892;SDS011;76433;42.122;23.040;2024-02-23T02:51:56;17.87;;;10.33;;
85892;SDS011;76433;42.122;23.040;2024-02-23T02:54:21;19.80;;;10.70;;
85892;SDS011;76433;42.122;23.040;2024-02-23T02:56:49;20.03;;;11.40;;
85892;SDS011;76433;42.122;23.040;2024-02-23T02:59:15;21.05;;;11.35;;
85892;SDS011;76433;42.122;23.040;2024-02-23T03:01:41;19.77;;;11.65;;
85892;SDS011;76433;42.122;23.040;2024-02-23T03:04:08;20.08;;;11.35;;
85892;SDS011;76433;42.122;23.040;2024-02-23T03:06:33;19.48;;;11.43;;
85892;SDS011;76433;42.122;23.040;2024-02-23T03:08:58;19.30;;;10.93;;
85892;SDS011;76433;42.122;23.040;2024-02-23T03:11:24;22.25;;;12.15;;
85892;SDS011;76433;42.122;23.040;2024-02-23T03:13:49;19.93;;;11.40;;
85892;SDS011;76433;42.122;23.040;2024-02-23T03:16:18;24.30;;;13.73;;
85892;SDS011;76433;42.122;23.040;2024-02-23T03:18:43;20.88;;;11.50;;
85892;SDS011;76433;42.122;23.040;2024-02-23T03:21:09;20.88;;;10.52;;
85892;SDS011;76433;42.122;23.040;2024-02-23T03:23:35;16.05;;;10.32;;
85892;SDS011;76433;42.122;23.040;2024-02-23T03:26:00;18.90;;;11.38;;
85892;SDS011;76433;42.122;23.040;2024-02-23T03:28:26;20.60;;;11.18;;
85892;SDS011;76433;42.122;23.040;2024-02-23T03:30:52;20.83;;;11.18;;
85892;SDS011;76433;42.122;23.040;2024-02-23T03:33:17;18.83;;;10.83;;
85892;SDS011;76433;42.122;23.040;2024-02-23T03:35:42;21.00;;;11.90;;
85892;SDS011;76433;42.122;23.040;2024-02-23T03:38:07;19.53;;;11.20;;
85892;SDS011;76433;42.122;23.040;2024-02-23T03:40:33;20.70;;;11.30;;
85892;SDS011;76433;42.122;23.040;2024-02-23T03:43:00;19.08;;;11.43;;
85892;SDS011;76433;42.122;23.040;2024-02-23T03:45:26;19.00;;;10.90;;
85892;SDS011;76433;42.122;23.040;2024-02-23T03:47:51;15.90;;;10.20;;
85892;SDS011;76433;42.122;23.040;2024-02-23T03:50:17;19.00;;;11.10;;
85892;SDS011;76433;42.122;23.040;2024-02-23T03:52:42;19.63;;;10.57;;
85892;SDS011;76433;42.122;23.040;2024-02-23T03:55:07;17.77;;;10.07;;
85892;SDS011;76433;42.122;23.040;2024-02-23T03:57:33;21.95;;;12.35;;
85892;SDS011;76433;42.122;23.040;2024-02-23T03:59:58;19.33;;;11.07;;
85892;SDS011;76433;42.122;23.040;2024-02-23T04:02:24;21.40;;;11.73;;
85892;SDS011;76433;42.122;23.040;2024-02-23T04:04:49;21.35;;;12.27;;
85892;SDS011;76433;42.122;23.040;2024-02-23T04:07:15;19.42;;;10.98;;
85892;SDS011;76433;42.122;23.040;2024-02-23T04:09:40;18.83;;;11.15;;
85892;SDS011;76433;42.122;23.040;2024-02-23T04:12:06;21.98;;;11.98;;
85892;SDS011;76433;42.122;23.040;2024-02-23T04:14:32;19.80;;;11.48;;
85892;SDS011;76433;42.122;23.040;2024-02-23T04:17:01;21.95;;;12.52;;
85892;SDS011;76433;42.122;23.040;2024-02-23T04:19:29;21.10;;;10.73;;
85892;SDS011;76433;42.122;23.040;2024-02-23T04:21:54;19.23;;;11.10;;
85892;SDS011;76433;42.122;23.040;2024-02-23T04:24:20;21.15;;;11.23;;
85892;SDS011;76433;42.122;23.040;2024-02-23T04:26:45;31.73;;;18.73;;
85892;SDS011;76433;42.122;23.040;2024-02-23T04:29:11;19.80;;;11.77;;
85892;SDS011;76433;42.122;23.040;2024-02-23T04:31:36;17.73;;;11.73;;
85892;SDS011;76433;42.122;23.040;2024-02-23T04:34:02;20.35;;;13.02;;
85892;SDS011;76433;42.122;23.040;2024-02-23T04:36:28;19.05;;;11.60;;
85892;SDS011;76433;42.122;23.040;2024-02-23T04:38:54;21.92;;;12.88;;
85892;SDS011;76433;42.122;23.040;2024-02-23T04:41:19;19.10;;;10.93;;
85892;SDS011;76433;42.122;23.040;2024-02-23T04:43:46;23.48;;;12.10;;
85892;SDS011;76433;42.122;23.040;2024-02-23T04:46:11;20.53;;;12.17;;
85892;SDS011;76433;42.122;23.040;2024-02-23T04:48:38;17.75;;;10.50;;
85892;SDS011;76433;42.122;23.040;2024-02-23T04:51:03;18.33;;;10.60;;
85892;SDS011;76433;42.122;23.040;2024-02-23T04:53:29;17.75;;;9.95;;
85892;SDS011;76433;42.122;23.040;2024-02-23T04:55:54;21.35;;;11.73;;
85892;SDS011;76433;42.122;23.040;2024-02-23T04:58:20;20.87;;;11.63;;
85892;SDS011;76433;42.122;23.040;2024-02-23T05:00:45;20.50;;;11.07;;
85892;SDS011;76433;42.122;23.040;2024-02-23T05:03:11;21.73;;;11.73;;
85892;SDS011;76433;42.122;23.040;2024-02-23T05:05:36;20.02;;;12.18;;
85892;SDS011;76433;42.122;23.040;2024-02-23T05:08:02;25.60;;;12.17;;
85892;SDS011;76433;42.122;23.040;2024-02-23T05:10:27;18.77;;;11.63;;
85892;SDS011;76433;42.122;23.040;2024-02-23T05:12:53;24.20;;;12.10;;
85892;SDS011;76433;42.122;23.040;2024-02-23T05:15:19;23.95;;;11.88;;
85892;SDS011;76433;42.122;23.040;2024-02-23T05:17:44;24.08;;;11.68;;
85892;SDS011;76433;42.122;23.040;2024-02-23T05:20:09;22.17;;;11.97;;
85892;SDS011;76433;42.122;23.040;2024-02-23T05:22:39;24.08;;;11.95;;
85892;SDS011;76433;42.122;23.040;2024-02-23T05:25:05;24.52;;;13.82;;
85892;SDS011;76433;42.122;23.040;2024-02-23T05:27:31;22.95;;;13.38;;
85892;SDS011;76433;42.122;23.040;2024-02-23T05:29:56;22.77;;;11.95;;
85892;SDS011;76433;42.122;23.040;2024-02-23T05:32:22;21.70;;;11.57;;
85892;SDS011;76433;42.122;23.040;2024-02-23T05:34:47;25.13;;;13.13;;
85892;SDS011;76433;42.122;23.040;2024-02-23T05:37:17;21.60;;;11.60;;
85892;SDS011;76433;42.122;23.040;2024-02-23T05:39:42;23.13;;;13.53;;
85892;SDS011;76433;42.122;23.040;2024-02-23T05:42:09;22.30;;;11.63;;
85892;SDS011;76433;42.122;23.040;2024-02-23T05:44:34;22.13;;;12.10;;
85892;SDS011;76433;42.122;23.040;2024-02-23T05:47:00;19.45;;;11.77;;
85892;SDS011;76433;42.122;23.040;2024-02-23T05:49:25;22.27;;;11.83;;
85892;SDS011;76433;42.122;23.040;2024-02-23T05:51:50;20.23;;;12.23;;
85892;SDS011;76433;42.122;23.040;2024-02-23T05:54:16;24.47;;;14.73;;
85892;SDS011;76433;42.122;23.040;2024-02-23T05:56:41;22.98;;;12.75;;
85892;SDS011;76433;42.122;23.040;2024-02-23T05:59:06;20.97;;;11.87;;
85892;SDS011;76433;42.122;23.040;2024-02-23T06:01:32;19.05;;;11.05;;
85892;SDS011;76433;42.122;23.040;2024-02-23T06:03:57;22.27;;;11.00;;
85892;SDS011;76433;42.122;23.040;2024-02-23T06:06:22;19.60;;;10.73;;
85892;SDS011;76433;42.122;23.040;2024-02-23T06:08:48;21.10;;;12.37;;
85892;SDS011;76433;42.122;23.040;2024-02-23T06:11:14;21.73;;;11.95;;
85892;SDS011;76433;42.122;23.040;2024-02-23T06:13:40;22.13;;;14.10;;
85892;SDS011;76433;42.122;23.040;2024-02-23T06:16:09;26.40;;;17.30;;
85892;SDS011;76433;42.122;23.040;2024-02-23T06:18:35;22.98;;;13.30;;
85892;SDS011;76433;42.122;23.040;2024-02-23T06:21:00;22.15;;;14.27;;
85892;SDS011;76433;42.122;23.040;2024-02-23T06:23:26;18.92;;;12.52;;
85892;SDS011;76433;42.122;23.040;2024-02-23T06:25:51;16.80;;;10.53;;
85892;SDS011;76433;42.122;23.040;2024-02-23T06:28:16;19.33;;;10.73;;
85892;SDS011;76433;42.122;23.040;2024-02-23T06:30:42;20.87;;;11.50;;
85892;SDS011;76433;42.122;23.040;2024-02-23T06:33:07;18.70;;;10.50;;
85892;SDS011;76433;42.122;23.040;2024-02-23T06:35:33;21.10;;;10.80;;
85892;SDS011;76433;42.122;23.040;2024-02-23T06:37:58;20.57;;;11.87;;
85892;SDS011;76433;42.122;23.040;2024-02-23T06:40:24;17.90;;;11.50;;
85892;SDS011;76433;42.122;23.040;2024-02-23T06:42:49;20.80;;;12.03;;
85892;SDS011;76433;42.122;23.040;2024-02-23T06:45:15;17.42;;;10.98;;
85892;SDS011;76433;42.122;23.040;2024-02-23T06:47:40;17.25;;;10.88;;
85892;SDS011;76433;42.122;23.040;2024-02-23T06:50:07;14.55;;;9.55;;
85892;SDS011;76433;42.122;23.040;2024-02-23T06:52:33;16.85;;;9.88;;
85892;SDS011;76433;42.122;23.040;2024-02-23T06:54:59;16.75;;;10.45;;
85892;SDS011;76433;42.122;23.040;2024-02-23T06:57:24;17.27;;;9.07;;
85892;SDS011;76433;42.122;23.040;2024-02-23T06:59:51;17.25;;;10.45;;
85892;SDS011;76433;42.122;23.040;2024-02-23T07:02:16;16.05;;;10.30;;
85892;SDS011;76433;42.122;23.040;2024-02-23T07:04:42;15.63;;;9.73;;
85892;SDS011;76433;42.122;23.040;2024-02-23T07:07:07;17.40;;;9.13;;
85892;SDS011;76433;42.122;23.040;2024-02-23T07:09:33;14.25;;;8.80;;
85892;SDS011;76433;42.122;23.040;2024-02-23T07:11:59;15.55;;;9.38;;
85892;SDS011;76433;42.122;23.040;2024-02-23T07:14:25;13.73;;;8.40;;
85892;SDS011;76433;42.122;23.040;2024-02-23T07:16:50;13.07;;;7.82;;
85892;SDS011;76433;42.122;23.040;2024-02-23T07:19:17;14.55;;;8.10;;
85892;SDS011;76433;42.122;23.040;2024-02-23T07:21:42;16.70;;;8.43;;
85892;SDS011;76433;42.122;23.040;2024-02-23T07:24:08;14.95;;;9.07;;
85892;SDS011;76433;42.122;23.040;2024-02-23T07:26:33;16.08;;;8.90;;
85892;SDS011;76433;42.122;23.040;2024-02-23T07:28:58;14.53;;;9.00;;
85892;SDS011;76433;42.122;23.040;2024-02-23T07:31:24;27.40;;;16.38;;
85892;SDS011;76433;42.122;23.040;2024-02-23T07:33:49;15.10;;;9.60;;
85892;SDS011;76433;42.122;23.040;2024-02-23T07:36:16;14.18;;;8.73;;
85892;SDS011;76433;42.122;23.040;2024-02-23T07:38:41;14.98;;;8.68;;
85892;SDS011;76433;42.122;23.040;2024-02-23T07:41:09;16.67;;;8.00;;
85892;SDS011;76433;42.122;23.040;2024-02-23T07:43:34;14.25;;;7.22;;
85892;SDS011;76433;42.122;23.040;2024-02-23T07:45:59;13.70;;;8.37;;
85892;SDS011;76433;42.122;23.040;2024-02-23T07:48:27;12.70;;;7.60;;
85892;SDS011;76433;42.122;23.040;2024-02-23T07:50:52;14.40;;;9.30;;
85892;SDS011;76433;42.122;23.040;2024-02-23T07:53:18;14.80;;;8.10;;
85892;SDS011;76433;42.122;23.040;2024-02-23T07:55:43;15.40;;;8.37;;
85892;SDS011;76433;42.122;23.040;2024-02-23T07:58:08;16.20;;;10.53;;
85892;SDS011;76433;42.122;23.040;2024-02-23T08:00:34;21.33;;;10.50;;
85892;SDS011;76433;42.122;23.040;2024-02-23T08:03:02;14.73;;;8.85;;
85892;SDS011;76433;42.122;23.040;2024-02-23T08:05:28;16.45;;;10.00;;
85892;SDS011;76433;42.122;23.040;2024-02-23T08:07:53;15.93;;;9.67;;
85892;SDS011;76433;42.122;23.040;2024-02-23T08:10:19;14.35;;;8.55;;
85892;SDS011;76433;42.122;23.040;2024-02-23T08:12:44;15.05;;;9.15;;
85892;SDS011;76433;42.122;23.040;2024-02-23T08:15:09;17.70;;;8.47;;
85892;SDS011;76433;42.122;23.040;2024-02-23T08:17:35;14.57;;;6.80;;
85892;SDS011;76433;42.122;23.040;2024-02-23T08:20:00;14.17;;;8.50;;
85892;SDS011;76433;42.122;23.040;2024-02-23T08:22:26;11.48;;;7.57;;
85892;SDS011;76433;42.122;23.040;2024-02-23T08:24:51;15.73;;;7.87;;
85892;SDS011;76433;42.122;23.040;2024-02-23T08:27:16;11.80;;;7.07;;
85892;SDS011;76433;42.122;23.040;2024-02-23T08:29:42;10.45;;;6.97;;
85892;SDS011;76433;42.122;23.040;2024-02-23T08:32:07;13.88;;;8.70;;
85892;SDS011;76433;42.122;23.040;2024-02-23T08:34:33;11.40;;;8.23;;
85892;SDS011;76433;42.122;23.040;2024-02-23T08:36:59;9.85;;;6.30;;
85892;SDS011;76433;42.122;23.040;2024-02-23T08:39:25;13.30;;;9.10;;
85892;SDS011;76433;42.122;23.040;2024-02-23T08:41:50;9.63;;;6.43;;
85892;SDS011;76433;42.122;23.040;2024-02-23T08:44:17;9.52;;;6.15;;
85892;SDS011;76433;42.122;23.040;2024-02-23T08:46:42;11.52;;;7.38;;
85892;SDS011;76433;42.122;23.040;2024-02-23T08:49:07;10.30;;;6.80;;
85892;SDS011;76433;42.122;23.040;2024-02-23T08:51:33;7.97;;;4.83;;
85892;SDS011;76433;42.122;23.040;2024-02-23T08:53:58;9.57;;;6.18;;
85892;SDS011;76433;42.122;23.040;2024-02-23T08:56:28;9.95;;;5.93;;
85892;SDS011;76433;42.122;23.040;2024-02-23T08:58:53;7.03;;;5.03;;
85892;SDS011;76433;42.122;23.040;2024-02-23T09:01:18;7.55;;;5.00;;
85892;SDS011;76433;42.122;23.040;2024-02-23T09:03:44;9.93;;;5.70;;
85892;SDS011;76433;42.122;23.040;2024-02-23T09:06:10;9.47;;;5.93;;
85892;SDS011;76433;42.122;23.040;2024-02-23T09:08:35;9.07;;;5.32;;
85892;SDS011;76433;42.122;23.040;2024-02-23T09:11:01;8.43;;;6.00;;
85892;SDS011;76433;42.122;23.040;2024-02-23T09:13:26;12.10;;;6.30;;
85892;SDS011;76433;42.122;23.040;2024-02-23T09:15:54;9.65;;;5.82;;
85892;SDS011;76433;42.122;23.040;2024-02-23T09:18:20;19.42;;;10.63;;
85892;SDS011;76433;42.122;23.040;2024-02-23T09:20:45;7.87;;;4.60;;
85892;SDS011;76433;42.122;23.040;2024-02-23T09:23:10;8.77;;;6.00;;
85892;SDS011;76433;42.122;23.040;2024-02-23T09:25:37;7.50;;;4.72;;
85892;SDS011;76433;42.122;23.040;2024-02-23T09:28:02;7.63;;;4.25;;
85892;SDS011;76433;42.122;23.040;2024-02-23T09:30:28;6.80;;;4.10;;
85892;SDS011;76433;42.122;23.040;2024-02-23T09:32:53;6.57;;;3.53;;
85892;SDS011;76433;42.122;23.040;2024-02-23T09:35:19;7.78;;;4.75;;
85892;SDS011;76433;42.122;23.040;2024-02-23T09:37:45;8.23;;;5.18;;
85892;SDS011;76433;42.122;23.040;2024-02-23T09:40:10;7.28;;;4.20;;
85892;SDS011;76433;42.122;23.040;2024-02-23T09:42:36;11.00;;;4.50;;
85892;SDS011;76433;42.122;23.040;2024-02-23T09:45:03;7.53;;;3.42;;
85892;SDS011;76433;42.122;23.040;2024-02-23T09:47:30;5.68;;;3.72;;
85892;SDS011;76433;42.122;23.040;2024-02-23T09:49:56;4.32;;;2.95;;
85892;SDS011;76433;42.122;23.040;2024-02-23T09:52:22;3.55;;;2.67;;
85892;SDS011;76433;42.122;23.040;2024-02-23T09:54:48;5.15;;;2.85;;
85892;SDS011;76433;42.122;23.040;2024-02-23T09:57:14;5.95;;;4.90;;
85892;SDS011;76433;42.122;23.040;2024-02-23T09:59:40;10.93;;;3.75;;
85892;SDS011;76433;42.122;23.040;2024-02-23T10:02:07;3.03;;;2.08;;
85892;SDS011;76433;42.122;23.040;2024-02-23T10:04:36;7.22;;;4.55;;
85892;SDS011;76433;42.122;23.040;2024-02-23T10:07:04;5.03;;;3.90;;
85892;SDS011;76433;42.122;23.040;2024-02-23T10:09:30;9.95;;;5.47;;
85892;SDS011;76433;42.122;23.040;2024-02-23T10:11:56;7.30;;;4.33;;
85892;SDS011;76433;42.122;23.040;2024-02-23T10:14:21;7.97;;;4.17;;
85892;SDS011;76433;42.122;23.040;2024-02-23T10:16:46;7.20;;;4.50;;
85892;SDS011;76433;42.122;23.040;2024-02-23T10:19:12;9.02;;;5.18;;
85892;SDS011;76433;42.122;23.040;2024-02-23T10:21:37;4.00;;;3.40;;
85892;SDS011;76433;42.122;23.040;2024-02-23T10:24:04;6.17;;;4.33;;
85892;SDS011;76433;42.122;23.040;2024-02-23T10:26:30;4.45;;;3.63;;
85892;SDS011;76433;42.122;23.040;2024-02-23T10:28:55;4.63;;;3.40;;
85892;SDS011;76433;42.122;23.040;2024-02-23T10:31:21;6.30;;;4.10;;
85892;SDS011;76433;42.122;23.040;2024-02-23T10:33:49;6.45;;;4.03;;
85892;SDS011;76433;42.122;23.040;2024-02-23T10:36:17;4.65;;;3.25;;
85892;SDS011;76433;42.122;23.040;2024-02-23T10:38:44;5.45;;;2.97;;
85892;SDS011;76433;42.122;23.040;2024-02-23T10:41:11;4.90;;;2.92;;
85892;SDS011;76433;42.122;23.040;2024-02-23T10:43:44;4.45;;;2.28;;
85892;SDS011;76433;42.122;23.040;2024-02-23T10:46:11;4.75;;;3.38;;
85892;SDS011;76433;42.122;23.040;2024-02-23T10:48:40;3.15;;;2.35;;
85892;SDS011;76433;42.122;23.040;2024-02-23T10:51:07;5.47;;;2.67;;
85892;SDS011;76433;42.122;23.040;2024-02-23T10:53:34;6.38;;;4.28;;
85892;SDS011;76433;42.122;23.040;2024-02-23T10:56:00;4.32;;;2.67;;
85892;SDS011;76433;42.122;23.040;2024-02-23T10:58:26;4.95;;;2.65;;
85892;SDS011;76433;42.122;23.040;2024-02-23T11:00:51;3.53;;;2.60;;
85892;SDS011;76433;42.122;23.040;2024-02-23T11:03:22;6.03;;;2.83;;
85892;SDS011;76433;42.122;23.040;2024-02-23T11:05:48;4.50;;;2.65;;
85892;SDS011;76433;42.122;23.040;2024-02-23T11:08:16;2.50;;;1.60;;
85892;SDS011;76433;42.122;23.040;2024-02-23T11:10:43;2.55;;;1.63;;
85892;SDS011;76433;42.122;23.040;2024-02-23T11:13:13;5.57;;;2.38;;
85892;SDS011;76433;42.122;23.040;2024-02-23T11:15:41;3.08;;;1.50;;
85892;SDS011;76433;42.122;23.040;2024-02-23T11:18:23;3.65;;;2.35;;
85892;SDS011;76433;42.122;23.040;2024-02-23T11:20:55;3.58;;;2.22;;
85892;SDS011;76433;42.122;23.040;2024-02-23T11:23:23;4.45;;;2.20;;
85892;SDS011;76433;42.122;23.040;2024-02-23T11:26:03;4.55;;;2.00;;
85892;SDS011;76433;42.122;23.040;2024-02-23T11:28:30;2.88;;;1.95;;
85892;SDS011;76433;42.122;23.040;2024-02-23T11:30:56;3.33;;;1.83;;
85892;SDS011;76433;42.122;23.040;2024-02-23T11:33:25;3.50;;;1.65;;
85892;SDS011;76433;42.122;23.040;2024-02-23T11:38:17;2.72;;;1.90;;
85892;SDS011;76433;42.122;23.040;2024-02-23T11:40:46;3.80;;;2.00;;
85892;SDS011;76433;42.122;23.040;2024-02-23T11:43:13;3.70;;;2.00;;
85892;SDS011;76433;42.122;23.040;2024-02-23T11:45:39;5.32;;;1.95;;
85892;SDS011;76433;42.122;23.040;2024-02-23T11:48:06;5.13;;;2.53;;
85892;SDS011;76433;42.122;23.040;2024-02-23T11:50:32;9.07;;;2.50;;
85892;SDS011;76433;42.122;23.040;2024-02-23T11:52:57;2.75;;;1.90;;
85892;SDS011;76433;42.122;23.040;2024-02-23T11:55:23;6.25;;;2.03;;
85892;SDS011;76433;42.122;23.040;2024-02-23T11:57:48;3.95;;;2.30;;
85892;SDS011;76433;42.122;23.040;2024-02-23T12:00:14;3.22;;;2.17;;
85892;SDS011;76433;42.122;23.040;2024-02-23T12:02:40;3.35;;;2.03;;
85892;SDS011;76433;42.122;23.040;2024-02-23T12:05:05;8.20;;;2.13;;
85892;SDS011;76433;42.122;23.040;2024-02-23T12:07:31;4.70;;;2.33;;
85892;SDS011;76433;42.122;23.040;2024-02-23T12:09:58;4.05;;;2.08;;
85892;SDS011;76433;42.122;23.040;2024-02-23T12:12:25;2.58;;;1.70;;
85892;SDS011;76433;42.122;23.040;2024-02-23T12:14:51;7.05;;;2.33;;
85892;SDS011;76433;42.122;23.040;2024-02-23T12:17:16;3.45;;;2.22;;
85892;SDS011;76433;42.122;23.040;2024-02-23T12:19:41;3.80;;;2.27;;
85892;SDS011;76433;42.122;23.040;2024-02-23T12:22:07;6.20;;;2.90;;
85892;SDS011;76433;42.122;23.040;2024-02-23T12:24:33;9.27;;;2.83;;
85892;SDS011;76433;42.122;23.040;2024-02-23T12:26:59;13.02;;;4.07;;
85892;SDS011;76433;42.122;23.040;2024-02-23T12:29:25;5.13;;;2.92;;
85892;SDS011;76433;42.122;23.040;2024-02-23T12:31:50;4.82;;;2.50;;
85892;SDS011;76433;42.122;23.040;2024-02-23T12:34:16;2.92;;;1.92;;
85892;SDS011;76433;42.122;23.040;2024-02-23T12:36:42;3.28;;;2.10;;
85892;SDS011;76433;42.122;23.040;2024-02-23T12:39:08;2.60;;;2.10;;
85892;SDS011;76433;42.122;23.040;2024-02-23T12:41:33;2.35;;;1.80;;
85892;SDS011;76433;42.122;23.040;2024-02-23T12:43:59;3.90;;;1.88;;
85892;SDS011;76433;42.122;23.040;2024-02-23T12:46:24;2.63;;;1.95;;
85892;SDS011;76433;42.122;23.040;2024-02-23T12:48:50;4.00;;;2.57;;
85892;SDS011;76433;42.122;23.040;2024-02-23T12:51:15;7.05;;;2.92;;
85892;SDS011;76433;42.122;23.040;2024-02-23T12:53:41;3.60;;;2.10;;
85892;SDS011;76433;42.122;23.040;2024-02-23T12:56:11;4.53;;;2.65;;
85892;SDS011;76433;42.122;23.040;2024-02-23T12:58:39;4.32;;;2.63;;
85892;SDS011;76433;42.122;23.040;2024-02-23T13:01:05;6.45;;;2.75;;
85892;SDS011;76433;42.122;23.040;2024-02-23T13:03:32;5.55;;;2.42;;
85892;SDS011;76433;42.122;23.040;2024-02-23T13:05:58;4.82;;;2.40;;
85892;SDS011;76433;42.122;23.040;2024-02-23T13:08:23;3.90;;;2.38;;
85892;SDS011;76433;42.122;23.040;2024-02-23T13:10:50;5.30;;;2.60;;
85892;SDS011;76433;42.122;23.040;2024-02-23T13:13:16;4.57;;;2.55;;
85892;SDS011;76433;42.122;23.040;2024-02-23T13:15:43;2.70;;;2.10;;
85892;SDS011;76433;42.122;23.040;2024-02-23T13:18:09;5.00;;;2.35;;
85892;SDS011;76433;42.122;23.040;2024-02-23T13:20:35;5.63;;;2.47;;
85892;SDS011;76433;42.122;23.040;2024-02-23T13:23:01;6.47;;;2.92;;
85892;SDS011;76433;42.122;23.040;2024-02-23T13:25:27;4.83;;;3.13;;
85892;SDS011;76433;42.122;23.040;2024-02-23T13:27:52;3.40;;;2.30;;
85892;SDS011;76433;42.122;23.040;2024-02-23T13:30:18;3.83;;;2.40;;
85892;SDS011;76433;42.122;23.040;2024-02-23T13:32:43;4.30;;;3.58;;
85892;SDS011;76433;42.122;23.040;2024-02-23T13:35:08;3.75;;;2.58;;
85892;SDS011;76433;42.122;23.040;2024-02-23T13:37:34;4.25;;;3.03;;
85892;SDS011;76433;42.122;23.040;2024-02-23T13:40:00;2.90;;;2.15;;
85892;SDS011;76433;42.122;23.040;2024-02-23T13:42:25;4.05;;;2.60;;
85892;SDS011;76433;42.122;23.040;2024-02-23T13:44:51;2.65;;;2.03;;
85892;SDS011;76433;42.122;23.040;2024-02-23T13:47:16;4.87;;;2.70;;
85892;SDS011;76433;42.122;23.040;2024-02-23T13:49:42;6.03;;;2.85;;
85892;SDS011;76433;42.122;23.040;2024-02-23T13:52:07;4.10;;;2.47;;
85892;SDS011;76433;42.122;23.040;2024-02-23T13:54:33;5.28;;;2.53;;
85892;SDS011;76433;42.122;23.040;2024-02-23T13:56:58;3.10;;;2.47;;
85892;SDS011;76433;42.122;23.040;2024-02-23T13:59:23;4.80;;;2.73;;
85892;SDS011;76433;42.122;23.040;2024-02-23T14:01:49;2.93;;;2.30;;
85892;SDS011;76433;42.122;23.040;2024-02-23T14:04:14;3.80;;;3.10;;
85892;SDS011;76433;42.122;23.040;2024-02-23T14:06:39;3.13;;;2.73;;
85892;SDS011;76433;42.122;23.040;2024-02-23T14:09:05;3.77;;;2.77;;
85892;SDS011;76433;42.122;23.040;2024-02-23T14:11:30;3.60;;;3.10;;
85892;SDS011;76433;42.122;23.040;2024-02-23T14:13:56;4.32;;;2.95;;
85892;SDS011;76433;42.122;23.040;2024-02-23T14:16:22;4.18;;;3.10;;